Terminal Aerodrome Forecast
Issued by NWS

Home | Current Version | Previous Version | Graphics & Text | Print | Product List | Glossary On
Versions: 1 2 3 4 5 6 7 8 9 10 11 12 13 14 15 16 17 18 19 20 21 22 23 24 25 26 27 28 29 30 31
000
FTUS43 KLOT 211900 AAA
TAFDPA
TAF AMD
KDPA 211957Z 2120/2218 02011G16KT P6SM SCT025 BKN040
      TEMPO 2121/2123 BKN025
     FM220000 04004KT P6SM FEW020 FEW040
     FM221400 08005KT P6SM SKC=

USA.gov is the U.S. government's official web portal to all federal, state and local government web resources and services.